sensor_id;sensor_type;location;lat;lon;timestamp;P1;durP1;ratioP1;P2;durP2;ratioP2
44987;SDS011;35735;52.226;21.254;2022-07-04T00:00:37;10.68;;;5.22;;
44987;SDS011;35735;52.226;21.254;2022-07-04T00:05:37;6.50;;;5.10;;
44987;SDS011;35735;52.226;21.254;2022-07-04T00:10:38;7.85;;;5.35;;
44987;SDS011;35735;52.226;21.254;2022-07-04T00:15:39;5.87;;;5.07;;
44987;SDS011;35735;52.226;21.254;2022-07-04T00:20:39;5.78;;;5.22;;
44987;SDS011;35735;52.226;21.254;2022-07-04T00:25:40;7.43;;;5.85;;
44987;SDS011;35735;52.226;21.254;2022-07-04T00:30:40;5.68;;;5.18;;
44987;SDS011;35735;52.226;21.254;2022-07-04T00:35:41;6.35;;;5.53;;
44987;SDS011;35735;52.226;21.254;2022-07-04T00:40:41;5.72;;;5.22;;
44987;SDS011;35735;52.226;21.254;2022-07-04T00:45:42;6.03;;;5.43;;
44987;SDS011;35735;52.226;21.254;2022-07-04T00:50:45;8.98;;;5.87;;
44987;SDS011;35735;52.226;21.254;2022-07-04T00:55:47;8.50;;;5.47;;
44987;SDS011;35735;52.226;21.254;2022-07-04T01:00:51;11.00;;;5.37;;
44987;SDS011;35735;52.226;21.254;2022-07-04T01:05:51;13.95;;;6.43;;
44987;SDS011;35735;52.226;21.254;2022-07-04T01:10:52;9.15;;;6.22;;
44987;SDS011;35735;52.226;21.254;2022-07-04T01:15:53;16.77;;;6.30;;
44987;SDS011;35735;52.226;21.254;2022-07-04T01:20:54;6.93;;;5.55;;
44987;SDS011;35735;52.226;21.254;2022-07-04T01:25:55;7.68;;;6.22;;
44987;SDS011;35735;52.226;21.254;2022-07-04T01:30:57;9.48;;;6.03;;
44987;SDS011;35735;52.226;21.254;2022-07-04T01:35:57;7.22;;;6.12;;
44987;SDS011;35735;52.226;21.254;2022-07-04T01:40:59;6.95;;;5.37;;
44987;SDS011;35735;52.226;21.254;2022-07-04T01:45:59;6.03;;;5.43;;
44987;SDS011;35735;52.226;21.254;2022-07-04T01:51:00;6.10;;;5.50;;
44987;SDS011;35735;52.226;21.254;2022-07-04T01:56:02;6.40;;;5.50;;
44987;SDS011;35735;52.226;21.254;2022-07-04T02:01:02;5.43;;;5.00;;
44987;SDS011;35735;52.226;21.254;2022-07-04T02:06:03;5.93;;;5.43;;
44987;SDS011;35735;52.226;21.254;2022-07-04T02:11:03;6.53;;;5.65;;
44987;SDS011;35735;52.226;21.254;2022-07-04T02:16:04;6.03;;;5.50;;
44987;SDS011;35735;52.226;21.254;2022-07-04T02:21:05;6.20;;;5.60;;
44987;SDS011;35735;52.226;21.254;2022-07-04T02:26:05;6.25;;;5.60;;
44987;SDS011;35735;52.226;21.254;2022-07-04T02:31:06;6.47;;;5.55;;
44987;SDS011;35735;52.226;21.254;2022-07-04T02:36:06;6.75;;;5.25;;
44987;SDS011;35735;52.226;21.254;2022-07-04T02:41:07;5.68;;;5.18;;
44987;SDS011;35735;52.226;21.254;2022-07-04T02:46:07;7.18;;;5.43;;
44987;SDS011;35735;52.226;21.254;2022-07-04T02:51:08;6.30;;;5.70;;
44987;SDS011;35735;52.226;21.254;2022-07-04T02:56:08;6.53;;;5.93;;
44987;SDS011;35735;52.226;21.254;2022-07-04T03:01:09;6.68;;;5.97;;
44987;SDS011;35735;52.226;21.254;2022-07-04T03:06:10;6.47;;;5.87;;
44987;SDS011;35735;52.226;21.254;2022-07-04T03:11:11;7.62;;;5.97;;
44987;SDS011;35735;52.226;21.254;2022-07-04T03:16:11;10.77;;;6.20;;
44987;SDS011;35735;52.226;21.254;2022-07-04T03:21:12;8.32;;;6.10;;
44987;SDS011;35735;52.226;21.254;2022-07-04T03:26:12;9.57;;;6.60;;
44987;SDS011;35735;52.226;21.254;2022-07-04T03:31:13;10.93;;;6.15;;
44987;SDS011;35735;52.226;21.254;2022-07-04T03:36:14;9.05;;;6.60;;
44987;SDS011;35735;52.226;21.254;2022-07-04T03:41:14;7.50;;;6.45;;
44987;SDS011;35735;52.226;21.254;2022-07-04T03:46:15;7.97;;;6.70;;
44987;SDS011;35735;52.226;21.254;2022-07-04T03:51:15;9.98;;;6.70;;
44987;SDS011;35735;52.226;21.254;2022-07-04T03:56:16;8.23;;;6.93;;
44987;SDS011;35735;52.226;21.254;2022-07-04T04:01:17;9.43;;;7.60;;
44987;SDS011;35735;52.226;21.254;2022-07-04T04:06:19;7.85;;;7.15;;
44987;SDS011;35735;52.226;21.254;2022-07-04T04:11:19;10.52;;;7.03;;
44987;SDS011;35735;52.226;21.254;2022-07-04T04:16:20;8.40;;;7.07;;
44987;SDS011;35735;52.226;21.254;2022-07-04T04:21:20;8.50;;;6.80;;
44987;SDS011;35735;52.226;21.254;2022-07-04T04:26:21;11.38;;;6.90;;
44987;SDS011;35735;52.226;21.254;2022-07-04T04:31:22;10.57;;;6.90;;
44987;SDS011;35735;52.226;21.254;2022-07-04T04:36:23;9.82;;;6.78;;
44987;SDS011;35735;52.226;21.254;2022-07-04T04:41:23;7.82;;;6.50;;
44987;SDS011;35735;52.226;21.254;2022-07-04T04:46:24;9.23;;;6.22;;
44987;SDS011;35735;52.226;21.254;2022-07-04T04:51:25;7.45;;;5.80;;
44987;SDS011;35735;52.226;21.254;2022-07-04T04:56:28;6.62;;;6.00;;
44987;SDS011;35735;52.226;21.254;2022-07-04T05:01:28;6.95;;;5.40;;
44987;SDS011;35735;52.226;21.254;2022-07-04T05:06:29;9.90;;;5.40;;
44987;SDS011;35735;52.226;21.254;2022-07-04T05:11:30;6.57;;;4.87;;
44987;SDS011;35735;52.226;21.254;2022-07-04T05:16:30;5.62;;;5.12;;
44987;SDS011;35735;52.226;21.254;2022-07-04T05:21:31;6.82;;;5.32;;
44987;SDS011;35735;52.226;21.254;2022-07-04T05:26:32;4.78;;;4.37;;
44987;SDS011;35735;52.226;21.254;2022-07-04T05:31:33;5.10;;;4.60;;
44987;SDS011;35735;52.226;21.254;2022-07-04T05:36:34;5.80;;;4.68;;
44987;SDS011;35735;52.226;21.254;2022-07-04T05:41:34;9.13;;;4.97;;
44987;SDS011;35735;52.226;21.254;2022-07-04T05:46:35;8.98;;;5.22;;
44987;SDS011;35735;52.226;21.254;2022-07-04T05:51:35;13.75;;;6.37;;
44987;SDS011;35735;52.226;21.254;2022-07-04T05:56:36;6.78;;;5.22;;
44987;SDS011;35735;52.226;21.254;2022-07-04T06:01:37;8.57;;;5.87;;
44987;SDS011;35735;52.226;21.254;2022-07-04T06:06:37;6.72;;;5.70;;
44987;SDS011;35735;52.226;21.254;2022-07-04T06:11:38;8.00;;;5.05;;
44987;SDS011;35735;52.226;21.254;2022-07-04T06:16:39;5.30;;;4.65;;
44987;SDS011;35735;52.226;21.254;2022-07-04T06:21:39;5.22;;;4.72;;
44987;SDS011;35735;52.226;21.254;2022-07-04T06:26:40;7.85;;;5.07;;
44987;SDS011;35735;52.226;21.254;2022-07-04T06:31:41;5.55;;;4.55;;
44987;SDS011;35735;52.226;21.254;2022-07-04T06:36:41;4.97;;;4.47;;
44987;SDS011;35735;52.226;21.254;2022-07-04T06:41:45;4.37;;;3.50;;
44987;SDS011;35735;52.226;21.254;2022-07-04T06:46:45;4.53;;;3.33;;
44987;SDS011;35735;52.226;21.254;2022-07-04T06:51:46;6.60;;;4.10;;
44987;SDS011;35735;52.226;21.254;2022-07-04T06:56:48;8.77;;;4.00;;
44987;SDS011;35735;52.226;21.254;2022-07-04T07:01:48;4.28;;;3.78;;
44987;SDS011;35735;52.226;21.254;2022-07-04T07:06:49;5.25;;;4.68;;
44987;SDS011;35735;52.226;21.254;2022-07-04T07:11:49;6.60;;;4.87;;
44987;SDS011;35735;52.226;21.254;2022-07-04T07:16:50;7.03;;;5.40;;
44987;SDS011;35735;52.226;21.254;2022-07-04T07:21:50;15.02;;;10.70;;
44987;SDS011;35735;52.226;21.254;2022-07-04T07:26:51;11.32;;;8.43;;
44987;SDS011;35735;52.226;21.254;2022-07-04T07:31:52;12.70;;;6.20;;
44987;SDS011;35735;52.226;21.254;2022-07-04T07:36:54;8.63;;;7.50;;
44987;SDS011;35735;52.226;21.254;2022-07-04T07:41:55;8.15;;;7.10;;
44987;SDS011;35735;52.226;21.254;2022-07-04T07:46:55;10.32;;;6.30;;
44987;SDS011;35735;52.226;21.254;2022-07-04T07:51:56;8.73;;;5.82;;
44987;SDS011;35735;52.226;21.254;2022-07-04T07:56:58;6.35;;;5.75;;
44987;SDS011;35735;52.226;21.254;2022-07-04T08:01:59;5.82;;;5.05;;
44987;SDS011;35735;52.226;21.254;2022-07-04T08:07:06;9.43;;;5.37;;
44987;SDS011;35735;52.226;21.254;2022-07-04T08:12:09;24.52;;;5.90;;
44987;SDS011;35735;52.226;21.254;2022-07-04T08:17:10;6.03;;;5.32;;
44987;SDS011;35735;52.226;21.254;2022-07-04T08:22:11;5.80;;;5.30;;
44987;SDS011;35735;52.226;21.254;2022-07-04T08:27:14;9.40;;;5.50;;
44987;SDS011;35735;52.226;21.254;2022-07-04T08:32:15;5.10;;;4.60;;
44987;SDS011;35735;52.226;21.254;2022-07-04T08:37:15;10.85;;;4.00;;
44987;SDS011;35735;52.226;21.254;2022-07-04T08:42:17;4.78;;;2.90;;
44987;SDS011;35735;52.226;21.254;2022-07-04T08:47:21;4.22;;;2.83;;
44987;SDS011;35735;52.226;21.254;2022-07-04T08:52:30;4.47;;;2.92;;
44987;SDS011;35735;52.226;21.254;2022-07-04T08:57:42;5.87;;;3.65;;
44987;SDS011;35735;52.226;21.254;2022-07-04T09:02:43;6.50;;;3.00;;
44987;SDS011;35735;52.226;21.254;2022-07-04T09:07:44;2.83;;;2.58;;
44987;SDS011;35735;52.226;21.254;2022-07-04T09:12:44;2.65;;;2.45;;
44987;SDS011;35735;52.226;21.254;2022-07-04T09:17:45;3.28;;;2.80;;
44987;SDS011;35735;52.226;21.254;2022-07-04T09:22:48;3.05;;;2.75;;
44987;SDS011;35735;52.226;21.254;2022-07-04T09:27:55;3.92;;;2.70;;
44987;SDS011;35735;52.226;21.254;2022-07-04T09:32:57;4.50;;;2.50;;
44987;SDS011;35735;52.226;21.254;2022-07-04T09:37:59;5.65;;;2.92;;
44987;SDS011;35735;52.226;21.254;2022-07-04T09:43:11;3.35;;;2.60;;
44987;SDS011;35735;52.226;21.254;2022-07-04T09:48:12;7.82;;;3.30;;
44987;SDS011;35735;52.226;21.254;2022-07-04T09:53:12;4.37;;;2.50;;
44987;SDS011;35735;52.226;21.254;2022-07-04T09:58:14;3.58;;;2.37;;
44987;SDS011;35735;52.226;21.254;2022-07-04T10:03:19;3.05;;;2.40;;
44987;SDS011;35735;52.226;21.254;2022-07-04T10:08:24;5.28;;;2.45;;
44987;SDS011;35735;52.226;21.254;2022-07-04T10:13:24;6.97;;;2.95;;
44987;SDS011;35735;52.226;21.254;2022-07-04T10:18:26;10.25;;;2.78;;
44987;SDS011;35735;52.226;21.254;2022-07-04T10:23:27;5.03;;;2.67;;
44987;SDS011;35735;52.226;21.254;2022-07-04T10:28:29;2.72;;;2.28;;
44987;SDS011;35735;52.226;21.254;2022-07-04T10:33:30;6.45;;;2.28;;
44987;SDS011;35735;52.226;21.254;2022-07-04T10:38:33;19.98;;;2.87;;
44987;SDS011;35735;52.226;21.254;2022-07-04T10:43:53;4.40;;;2.45;;
44987;SDS011;35735;52.226;21.254;2022-07-04T10:54:06;8.55;;;2.50;;
44987;SDS011;35735;52.226;21.254;2022-07-04T10:59:22;3.58;;;2.00;;
44987;SDS011;35735;52.226;21.254;2022-07-04T11:15:11;17.02;;;2.47;;
44987;SDS011;35735;52.226;21.254;2022-07-04T11:20:11;4.22;;;2.10;;
44987;SDS011;35735;52.226;21.254;2022-07-04T11:25:12;5.93;;;2.40;;
44987;SDS011;35735;52.226;21.254;2022-07-04T11:30:13;5.28;;;1.98;;
44987;SDS011;35735;52.226;21.254;2022-07-04T11:35:19;4.03;;;1.80;;
44987;SDS011;35735;52.226;21.254;2022-07-04T11:40:21;4.00;;;2.03;;
44987;SDS011;35735;52.226;21.254;2022-07-04T11:45:21;4.90;;;2.17;;
44987;SDS011;35735;52.226;21.254;2022-07-04T11:50:22;11.30;;;2.17;;
44987;SDS011;35735;52.226;21.254;2022-07-04T11:55:22;4.55;;;2.20;;
44987;SDS011;35735;52.226;21.254;2022-07-04T12:00:26;15.38;;;2.67;;
44987;SDS011;35735;52.226;21.254;2022-07-04T12:05:29;6.87;;;2.17;;
44987;SDS011;35735;52.226;21.254;2022-07-04T12:10:30;6.40;;;2.22;;
44987;SDS011;35735;52.226;21.254;2022-07-04T12:20:42;2.55;;;1.65;;
44987;SDS011;35735;52.226;21.254;2022-07-04T12:25:44;3.15;;;2.10;;
44987;SDS011;35735;52.226;21.254;2022-07-04T12:30:51;2.65;;;1.98;;
44987;SDS011;35735;52.226;21.254;2022-07-04T12:35:57;4.30;;;1.80;;
44987;SDS011;35735;52.226;21.254;2022-07-04T12:41:01;2.92;;;1.70;;
44987;SDS011;35735;52.226;21.254;2022-07-04T12:51:13;5.03;;;2.10;;
44987;SDS011;35735;52.226;21.254;2022-07-04T12:56:35;9.45;;;1.92;;
44987;SDS011;35735;52.226;21.254;2022-07-04T13:01:41;7.90;;;1.77;;
44987;SDS011;35735;52.226;21.254;2022-07-04T13:06:43;5.97;;;1.80;;
44987;SDS011;35735;52.226;21.254;2022-07-04T13:11:43;5.68;;;2.03;;
44987;SDS011;35735;52.226;21.254;2022-07-04T13:16:44;5.60;;;2.15;;
44987;SDS011;35735;52.226;21.254;2022-07-04T13:21:45;4.80;;;1.52;;
44987;SDS011;35735;52.226;21.254;2022-07-04T13:26:46;3.97;;;1.85;;
44987;SDS011;35735;52.226;21.254;2022-07-04T13:31:47;4.45;;;1.55;;
44987;SDS011;35735;52.226;21.254;2022-07-04T13:36:47;6.70;;;1.90;;
44987;SDS011;35735;52.226;21.254;2022-07-04T13:41:48;7.07;;;1.73;;
44987;SDS011;35735;52.226;21.254;2022-07-04T13:46:48;5.80;;;1.83;;
44987;SDS011;35735;52.226;21.254;2022-07-04T13:51:49;8.40;;;2.12;;
44987;SDS011;35735;52.226;21.254;2022-07-04T13:56:50;3.85;;;1.80;;
44987;SDS011;35735;52.226;21.254;2022-07-04T14:01:51;3.30;;;1.70;;
44987;SDS011;35735;52.226;21.254;2022-07-04T14:06:51;7.47;;;2.00;;
44987;SDS011;35735;52.226;21.254;2022-07-04T14:11:52;21.40;;;2.53;;
44987;SDS011;35735;52.226;21.254;2022-07-04T14:16:52;7.20;;;2.10;;
44987;SDS011;35735;52.226;21.254;2022-07-04T14:21:54;8.45;;;2.08;;
44987;SDS011;35735;52.226;21.254;2022-07-04T14:26:55;7.68;;;2.00;;
44987;SDS011;35735;52.226;21.254;2022-07-04T14:31:56;5.62;;;1.85;;
44987;SDS011;35735;52.226;21.254;2022-07-04T14:36:58;4.62;;;1.92;;
44987;SDS011;35735;52.226;21.254;2022-07-04T14:41:59;2.87;;;2.00;;
44987;SDS011;35735;52.226;21.254;2022-07-04T14:46:59;7.35;;;2.20;;
44987;SDS011;35735;52.226;21.254;2022-07-04T14:52:00;12.43;;;2.30;;
44987;SDS011;35735;52.226;21.254;2022-07-04T14:57:00;6.43;;;2.42;;
44987;SDS011;35735;52.226;21.254;2022-07-04T15:02:02;8.00;;;2.15;;
44987;SDS011;35735;52.226;21.254;2022-07-04T15:07:05;7.90;;;2.50;;
44987;SDS011;35735;52.226;21.254;2022-07-04T15:12:07;12.57;;;2.97;;
44987;SDS011;35735;52.226;21.254;2022-07-04T15:17:08;11.52;;;2.62;;
44987;SDS011;35735;52.226;21.254;2022-07-04T15:22:08;9.77;;;2.40;;
44987;SDS011;35735;52.226;21.254;2022-07-04T15:27:10;8.30;;;2.50;;
44987;SDS011;35735;52.226;21.254;2022-07-04T15:32:11;3.45;;;2.37;;
44987;SDS011;35735;52.226;21.254;2022-07-04T15:37:11;16.05;;;3.15;;
44987;SDS011;35735;52.226;21.254;2022-07-04T15:42:12;15.60;;;2.67;;
44987;SDS011;35735;52.226;21.254;2022-07-04T15:47:13;13.32;;;2.95;;
44987;SDS011;35735;52.226;21.254;2022-07-04T15:52:13;6.95;;;2.40;;
44987;SDS011;35735;52.226;21.254;2022-07-04T15:57:14;4.37;;;2.50;;
44987;SDS011;35735;52.226;21.254;2022-07-04T16:02:16;13.35;;;2.87;;
44987;SDS011;35735;52.226;21.254;2022-07-04T16:07:17;7.50;;;2.78;;
44987;SDS011;35735;52.226;21.254;2022-07-04T16:12:18;5.03;;;2.65;;
44987;SDS011;35735;52.226;21.254;2022-07-04T16:17:21;9.10;;;2.47;;
44987;SDS011;35735;52.226;21.254;2022-07-04T16:22:21;10.80;;;3.12;;
44987;SDS011;35735;52.226;21.254;2022-07-04T16:27:22;20.05;;;3.60;;
44987;SDS011;35735;52.226;21.254;2022-07-04T16:32:23;10.43;;;2.95;;
44987;SDS011;35735;52.226;21.254;2022-07-04T16:37:23;5.10;;;2.62;;
44987;SDS011;35735;52.226;21.254;2022-07-04T16:42:24;7.43;;;2.70;;
44987;SDS011;35735;52.226;21.254;2022-07-04T16:47:25;4.80;;;2.50;;
44987;SDS011;35735;52.226;21.254;2022-07-04T16:52:25;6.87;;;3.22;;
44987;SDS011;35735;52.226;21.254;2022-07-04T16:57:26;8.40;;;2.50;;
44987;SDS011;35735;52.226;21.254;2022-07-04T17:02:26;4.70;;;2.60;;
44987;SDS011;35735;52.226;21.254;2022-07-04T17:07:27;5.57;;;2.50;;
44987;SDS011;35735;52.226;21.254;2022-07-04T17:12:28;10.23;;;3.05;;
44987;SDS011;35735;52.226;21.254;2022-07-04T17:17:28;7.65;;;2.92;;
44987;SDS011;35735;52.226;21.254;2022-07-04T17:22:30;14.27;;;3.05;;
44987;SDS011;35735;52.226;21.254;2022-07-04T17:27:31;4.28;;;2.40;;
44987;SDS011;35735;52.226;21.254;2022-07-04T17:32:33;2.83;;;2.62;;
44987;SDS011;35735;52.226;21.254;2022-07-04T17:37:34;6.05;;;2.65;;
44987;SDS011;35735;52.226;21.254;2022-07-04T17:42:35;4.95;;;2.90;;
44987;SDS011;35735;52.226;21.254;2022-07-04T17:47:36;8.07;;;2.83;;
44987;SDS011;35735;52.226;21.254;2022-07-04T17:52:38;6.22;;;2.85;;
44987;SDS011;35735;52.226;21.254;2022-07-04T17:57:38;9.63;;;2.85;;
44987;SDS011;35735;52.226;21.254;2022-07-04T18:02:42;6.53;;;3.22;;
44987;SDS011;35735;52.226;21.254;2022-07-04T18:07:42;8.45;;;2.95;;
44987;SDS011;35735;52.226;21.254;2022-07-04T18:12:43;8.82;;;3.20;;
44987;SDS011;35735;52.226;21.254;2022-07-04T18:17:47;6.70;;;3.03;;
44987;SDS011;35735;52.226;21.254;2022-07-04T18:22:48;4.45;;;3.17;;
44987;SDS011;35735;52.226;21.254;2022-07-04T18:27:48;7.62;;;2.95;;
44987;SDS011;35735;52.226;21.254;2022-07-04T18:32:52;6.65;;;2.92;;
44987;SDS011;35735;52.226;21.254;2022-07-04T18:37:53;12.45;;;3.55;;
44987;SDS011;35735;52.226;21.254;2022-07-04T18:42:53;9.90;;;3.25;;
44987;SDS011;35735;52.226;21.254;2022-07-04T18:47:54;9.95;;;3.50;;
44987;SDS011;35735;52.226;21.254;2022-07-04T18:52:55;15.68;;;3.65;;
44987;SDS011;35735;52.226;21.254;2022-07-04T18:57:55;20.95;;;4.07;;
44987;SDS011;35735;52.226;21.254;2022-07-04T19:02:56;32.08;;;4.40;;
44987;SDS011;35735;52.226;21.254;2022-07-04T19:08:00;12.88;;;3.95;;
44987;SDS011;35735;52.226;21.254;2022-07-04T19:13:01;15.95;;;4.35;;
44987;SDS011;35735;52.226;21.254;2022-07-04T19:18:01;15.07;;;4.53;;
44987;SDS011;35735;52.226;21.254;2022-07-04T19:23:05;11.38;;;4.28;;
44987;SDS011;35735;52.226;21.254;2022-07-04T19:28:07;7.80;;;4.00;;
44987;SDS011;35735;52.226;21.254;2022-07-04T19:33:08;7.95;;;3.87;;
44987;SDS011;35735;52.226;21.254;2022-07-04T19:38:08;9.82;;;4.00;;
44987;SDS011;35735;52.226;21.254;2022-07-04T19:43:09;34.83;;;5.70;;
44987;SDS011;35735;52.226;21.254;2022-07-04T19:48:09;22.27;;;4.95;;
44987;SDS011;35735;52.226;21.254;2022-07-04T19:53:10;16.40;;;4.55;;
44987;SDS011;35735;52.226;21.254;2022-07-04T19:58:13;33.45;;;6.45;;
44987;SDS011;35735;52.226;21.254;2022-07-04T20:03:14;17.73;;;5.20;;
44987;SDS011;35735;52.226;21.254;2022-07-04T20:08:14;24.02;;;6.28;;
44987;SDS011;35735;52.226;21.254;2022-07-04T20:13:15;22.08;;;5.47;;
44987;SDS011;35735;52.226;21.254;2022-07-04T20:18:15;18.58;;;4.93;;
44987;SDS011;35735;52.226;21.254;2022-07-04T20:23:16;12.75;;;5.07;;
44987;SDS011;35735;52.226;21.254;2022-07-04T20:28:16;16.40;;;5.93;;
44987;SDS011;35735;52.226;21.254;2022-07-04T20:33:17;13.88;;;5.40;;
44987;SDS011;35735;52.226;21.254;2022-07-04T20:38:17;14.85;;;5.82;;
44987;SDS011;35735;52.226;21.254;2022-07-04T20:43:18;12.98;;;5.22;;
44987;SDS011;35735;52.226;21.254;2022-07-04T20:48:19;12.80;;;5.37;;
44987;SDS011;35735;52.226;21.254;2022-07-04T20:53:19;13.15;;;5.78;;
44987;SDS011;35735;52.226;21.254;2022-07-04T20:58:20;11.30;;;5.47;;
44987;SDS011;35735;52.226;21.254;2022-07-04T21:03:20;10.75;;;5.80;;
44987;SDS011;35735;52.226;21.254;2022-07-04T21:08:24;11.68;;;5.53;;
44987;SDS011;35735;52.226;21.254;2022-07-04T21:13:24;16.17;;;6.15;;
44987;SDS011;35735;52.226;21.254;2022-07-04T21:18:25;13.68;;;6.35;;
44987;SDS011;35735;52.226;21.254;2022-07-04T21:23:28;16.12;;;6.50;;
44987;SDS011;35735;52.226;21.254;2022-07-04T21:28:29;12.68;;;6.18;;
44987;SDS011;35735;52.226;21.254;2022-07-04T21:33:29;14.07;;;6.40;;
44987;SDS011;35735;52.226;21.254;2022-07-04T21:38:30;11.90;;;6.00;;
44987;SDS011;35735;52.226;21.254;2022-07-04T21:43:31;14.13;;;6.22;;
44987;SDS011;35735;52.226;21.254;2022-07-04T21:48:32;19.00;;;6.97;;
44987;SDS011;35735;52.226;21.254;2022-07-04T21:53:32;13.15;;;6.12;;
44987;SDS011;35735;52.226;21.254;2022-07-04T21:58:33;16.05;;;6.70;;
44987;SDS011;35735;52.226;21.254;2022-07-04T22:03:33;12.13;;;6.10;;
44987;SDS011;35735;52.226;21.254;2022-07-04T22:08:34;7.60;;;6.00;;
44987;SDS011;35735;52.226;21.254;2022-07-04T22:13:35;8.20;;;5.70;;
44987;SDS011;35735;52.226;21.254;2022-07-04T22:18:35;7.75;;;5.40;;
44987;SDS011;35735;52.226;21.254;2022-07-04T22:23:36;8.45;;;5.68;;
44987;SDS011;35735;52.226;21.254;2022-07-04T22:28:36;7.10;;;5.82;;
44987;SDS011;35735;52.226;21.254;2022-07-04T22:33:37;6.53;;;5.87;;
44987;SDS011;35735;52.226;21.254;2022-07-04T22:38:37;7.30;;;6.00;;
44987;SDS011;35735;52.226;21.254;2022-07-04T22:43:38;12.13;;;6.30;;
44987;SDS011;35735;52.226;21.254;2022-07-04T22:48:39;9.73;;;6.12;;
44987;SDS011;35735;52.226;21.254;2022-07-04T22:53:40;10.02;;;6.03;;
44987;SDS011;35735;52.226;21.254;2022-07-04T22:58:42;7.00;;;5.85;;
44987;SDS011;35735;52.226;21.254;2022-07-04T23:03:43;10.35;;;6.43;;
44987;SDS011;35735;52.226;21.254;2022-07-04T23:08:44;7.32;;;6.35;;
44987;SDS011;35735;52.226;21.254;2022-07-04T23:13:44;6.45;;;5.78;;
44987;SDS011;35735;52.226;21.254;2022-07-04T23:18:45;8.35;;;5.78;;
44987;SDS011;35735;52.226;21.254;2022-07-04T23:23:46;12.45;;;6.68;;
44987;SDS011;35735;52.226;21.254;2022-07-04T23:28:46;7.90;;;6.32;;
44987;SDS011;35735;52.226;21.254;2022-07-04T23:33:47;7.05;;;6.30;;
44987;SDS011;35735;52.226;21.254;2022-07-04T23:38:47;7.68;;;6.53;;
44987;SDS011;35735;52.226;21.254;2022-07-04T23:43:48;11.60;;;6.87;;
44987;SDS011;35735;52.226;21.254;2022-07-04T23:48:49;11.15;;;7.10;;
44987;SDS011;35735;52.226;21.254;2022-07-04T23:53:49;7.95;;;6.68;;
44987;SDS011;35735;52.226;21.254;2022-07-04T23:58:50;7.82;;;7.03;;
